EmailTwitter


Surface observations / France / LFPO (07149)

Regions: Quebec | Canada | USA | Europe | France | UK | Elsewhere
Station
Display
Info & Location for LFPO (07149) | Help decoding METAR

Weather Conditions observed on 2019/11/22 at 16:00 UTC at PARIS/ORLY, FR (LFPO)

Temperature: 10.0 Celsius.

Dewpoint: 6.0 Celsius.

Relative Humidity: 76%

Windchill Factor: 8.

Winds: East at 15 km/h or 8 knots.

Mean Sea level Pressure: 99.40 kilopascals.

Coded METAR:

LFPO 221600Z 10008KT 060V140 CAVOK 10/06 Q0994 NOSIG=